createdAt,value
2022-12-08T00:00:35.089Z,100434.41
2022-12-08T00:03:20.947Z,100432.72
2022-12-08T00:06:26.863Z,100426.69
2022-12-08T00:09:24.077Z,100427.38
2022-12-08T00:12:15.077Z,100408.56
2022-12-08T00:15:00.995Z,100412.84
2022-12-08T00:17:46.837Z,100403.53
2022-12-08T00:20:32.259Z,100393.25
2022-12-08T00:23:18.111Z,100408.59
2022-12-08T00:26:04.927Z,100369.50
2022-12-08T00:28:50.399Z,100402.47
2022-12-08T00:31:36.139Z,100396.50
2022-12-08T00:34:21.437Z,100391.50
2022-12-08T00:37:06.810Z,100388.50
2022-12-08T00:39:52.468Z,100376.69
2022-12-08T00:42:38.087Z,100370.59
2022-12-08T00:45:23.488Z,100373.94
2022-12-08T00:48:08.993Z,100356.97
2022-12-08T00:50:54.510Z,100354.97
2022-12-08T00:53:39.949Z,100355.06
2022-12-08T00:56:26.236Z,100354.16
2022-12-08T00:59:11.913Z,100363.53
2022-12-08T01:01:57.244Z,100353.44
2022-12-08T01:04:42.802Z,100361.03
2022-12-08T01:07:28.167Z,100350.59
2022-12-08T01:10:13.402Z,100360.81
2022-12-08T01:12:58.581Z,100343.50
2022-12-08T01:15:43.883Z,100352.09
2022-12-08T01:18:29.871Z,100344.47
2022-12-08T01:21:15.602Z,100340.16
2022-12-08T01:24:02.559Z,100338.44
2022-12-08T01:26:49.780Z,100338.31
2022-12-08T01:29:35.298Z,100347.63
2022-12-08T01:32:20.738Z,100333.03
2022-12-08T01:35:06.622Z,100344.28
2022-12-08T01:37:52.199Z,100351.94
2022-12-08T01:40:37.507Z,100325.94
2022-12-08T01:43:22.995Z,100339.56
2022-12-08T01:46:08.203Z,100313.31
2022-12-08T01:49:00.862Z,100310.72
2022-12-08T01:51:56.571Z,100341.34
2022-12-08T01:54:49.530Z,100333.72
2022-12-08T01:57:43.254Z,100329.16
2022-12-08T02:00:28.815Z,100335.28
2022-12-08T02:03:19.981Z,100332.59
2022-12-08T02:06:06.227Z,100339.63
2022-12-08T02:08:52.071Z,100337.84
2022-12-08T02:11:37.642Z,100336.63
2022-12-08T02:14:23.322Z,100316.09
2022-12-08T02:17:27.815Z,100316.53
2022-12-08T02:20:27.479Z,100332.41
2022-12-08T02:23:44.084Z,100320.09
2022-12-08T02:27:00.375Z,100302.38
2022-12-08T02:30:07.501Z,100314.25
2022-12-08T02:33:09.226Z,100306.22
2022-12-08T02:36:15.151Z,100296.94
2022-12-08T02:39:20.893Z,100298.72
2022-12-08T02:42:25.127Z,100298.41
2022-12-08T02:45:38.898Z,100283.16
2022-12-08T02:48:27.599Z,100291.34
2022-12-08T02:51:13.144Z,100285.50
2022-12-08T02:53:59.901Z,100280.81
2022-12-08T02:56:53.581Z,100281.59
2022-12-08T03:00:11.235Z,100262.78
2022-12-08T03:03:27.998Z,100279.22
2022-12-08T03:06:16.060Z,100280.72
2022-12-08T03:09:10.421Z,100279.44
2022-12-08T03:12:20.825Z,100269.06
2022-12-08T03:15:11.237Z,100267.97
2022-12-08T03:17:58.581Z,100251.66
2022-12-08T03:20:47.484Z,100257.56
2022-12-08T03:23:36.662Z,100242.03
2022-12-08T03:26:34.123Z,100242.84
2022-12-08T03:29:20.198Z,100227.28
2022-12-08T03:32:34.891Z,100234.03
2022-12-08T03:35:25.982Z,100227.09
2022-12-08T03:38:14.565Z,100224.69
2022-12-08T03:41:18.225Z,100222.34
2022-12-08T03:44:03.651Z,100218.72
2022-12-08T03:46:49.309Z,100184.66
2022-12-08T03:49:34.686Z,100219.22
2022-12-08T03:52:20.319Z,100198.75
2022-12-08T03:55:06.469Z,100205.69
2022-12-08T03:57:52.117Z,100214.97
2022-12-08T04:00:37.441Z,100213.00
2022-12-08T04:03:23.038Z,100215.59
2022-12-08T04:06:08.942Z,100205.84
2022-12-08T04:08:54.450Z,100194.59
2022-12-08T04:11:40.022Z,100191.13
2022-12-08T04:14:25.611Z,100199.69
2022-12-08T04:17:11.139Z,100185.03
2022-12-08T04:19:56.808Z,100204.72
2022-12-08T04:22:42.173Z,100200.91
2022-12-08T04:25:27.967Z,100188.09
2022-12-08T04:28:13.505Z,100187.47
2022-12-08T04:30:58.876Z,100196.75
2022-12-08T04:33:44.868Z,100192.47
2022-12-08T04:36:30.432Z,100185.63
2022-12-08T04:39:15.693Z,100192.31
2022-12-08T04:42:01.378Z,100178.19
2022-12-08T04:44:46.979Z,100187.03
2022-12-08T04:47:32.663Z,100178.28
2022-12-08T04:50:18.151Z,100182.66
2022-12-08T04:53:03.601Z,100176.03
2022-12-08T04:55:49.654Z,100178.31
2022-12-08T04:58:34.877Z,100180.09
2022-12-08T05:01:20.541Z,100187.50
2022-12-08T05:04:06.154Z,100171.97
2022-12-08T05:06:51.875Z,100198.44
2022-12-08T05:09:37.215Z,100197.13
2022-12-08T05:12:22.828Z,100194.75
2022-12-08T05:15:08.497Z,100191.19
2022-12-08T05:17:53.864Z,100183.63
2022-12-08T05:20:39.582Z,100186.47
2022-12-08T05:23:25.276Z,100181.34
2022-12-08T05:26:10.416Z,100170.28
2022-12-08T05:28:56.145Z,100164.28
2022-12-08T05:31:42.024Z,100152.31
2022-12-08T05:34:27.802Z,100182.91
2022-12-08T05:37:13.526Z,100169.09
2022-12-08T05:39:58.747Z,100154.53
2022-12-08T05:42:44.229Z,100164.75
2022-12-08T05:45:30.112Z,100146.03
2022-12-08T05:48:15.697Z,100176.56
2022-12-08T05:51:01.275Z,100172.25
2022-12-08T05:53:47.674Z,100177.38
2022-12-08T05:56:33.035Z,100172.84
2022-12-08T05:59:18.583Z,100169.59
2022-12-08T06:02:04.302Z,100175.41
2022-12-08T06:04:50.063Z,100169.81
2022-12-08T06:07:35.441Z,100151.91
2022-12-08T06:10:20.751Z,100149.53
2022-12-08T06:13:06.026Z,100162.97
2022-12-08T06:15:51.474Z,100156.00
2022-12-08T06:18:36.877Z,100169.44
2022-12-08T06:21:22.726Z,100161.03
2022-12-08T06:24:08.419Z,100158.50
2022-12-08T06:26:53.658Z,100164.25
2022-12-08T06:29:38.967Z,100171.78
2022-12-08T06:32:27.577Z,100163.78
2022-12-08T06:35:13.148Z,100169.22
2022-12-08T06:37:58.714Z,100168.44
2022-12-08T06:40:44.101Z,100166.16
2022-12-08T06:43:29.560Z,100161.69
2022-12-08T06:46:17.431Z,100172.91
2022-12-08T06:49:04.836Z,100177.31
2022-12-08T06:51:50.107Z,100168.97
2022-12-08T06:54:35.371Z,100174.94
2022-12-08T06:57:21.222Z,100179.16
2022-12-08T07:00:07.555Z,100179.16
2022-12-08T07:02:53.473Z,100174.72
2022-12-08T07:05:39.053Z,100170.72
2022-12-08T07:08:24.446Z,100172.38
2022-12-08T07:11:12.426Z,100175.53
2022-12-08T07:14:00.746Z,100180.22
2022-12-08T07:16:46.298Z,100159.56
2022-12-08T07:19:31.708Z,100180.78
2022-12-08T07:22:17.307Z,100179.00
2022-12-08T07:25:02.853Z,100190.22
2022-12-08T07:27:49.966Z,100179.59
2022-12-08T07:30:35.345Z,100185.31
2022-12-08T07:33:21.116Z,100176.25
2022-12-08T07:36:07.041Z,100188.88
2022-12-08T07:38:53.658Z,100164.06
2022-12-08T07:41:39.076Z,100187.06
2022-12-08T07:44:24.478Z,100207.16
2022-12-08T07:47:09.852Z,100189.94
2022-12-08T07:49:55.452Z,100187.19
2022-12-08T07:52:40.886Z,100202.47
2022-12-08T07:55:26.349Z,100178.41
2022-12-08T07:58:11.946Z,100182.34
2022-12-08T08:00:57.675Z,100185.63
2022-12-08T08:03:42.986Z,100196.28
2022-12-08T08:06:28.711Z,100184.03
2022-12-08T08:09:14.048Z,100176.63
2022-12-08T08:12:28.905Z,100185.88
2022-12-08T08:15:09.006Z,100183.00
2022-12-08T08:17:54.709Z,100198.66
2022-12-08T08:20:40.985Z,100194.56
2022-12-08T08:23:26.286Z,100201.19
2022-12-08T08:26:12.204Z,100188.13
2022-12-08T08:28:57.629Z,100201.88
2022-12-08T08:31:43.103Z,100198.13
2022-12-08T08:34:28.396Z,100203.66
2022-12-08T08:37:13.794Z,100204.31
2022-12-08T08:39:59.139Z,100204.19
2022-12-08T08:42:44.532Z,100212.44
2022-12-08T08:45:30.164Z,100220.38
2022-12-08T08:48:15.564Z,100209.31
2022-12-08T08:51:08.827Z,100211.63
2022-12-08T08:53:54.255Z,100207.56
2022-12-08T08:56:40.102Z,100210.53
2022-12-08T08:59:26.291Z,100216.41
2022-12-08T09:02:19.131Z,100209.94
2022-12-08T09:05:05.914Z,100223.72
2022-12-08T09:07:51.824Z,100195.28
2022-12-08T09:10:37.506Z,100218.75
2022-12-08T09:13:23.488Z,100214.31
2022-12-08T09:16:10.986Z,100221.00
2022-12-08T09:18:56.539Z,100216.56
2022-12-08T09:21:42.167Z,100214.81
2022-12-08T09:24:27.503Z,100223.09
2022-12-08T09:27:13.183Z,100223.53
2022-12-08T09:29:58.541Z,100228.16
2022-12-08T09:32:44.032Z,100216.19
2022-12-08T09:35:29.327Z,100222.44
2022-12-08T09:38:15.163Z,100208.31
2022-12-08T09:41:04.350Z,100217.03
2022-12-08T09:44:17.984Z,100213.66
2022-12-08T09:47:12.528Z,100214.53
2022-12-08T09:50:22.698Z,100207.75
2022-12-08T09:53:16.930Z,100222.16
2022-12-08T09:56:05.664Z,100198.28
2022-12-08T09:58:54.892Z,100226.31
2022-12-08T10:01:43.724Z,100209.69
2022-12-08T10:04:35.933Z,100229.13
2022-12-08T10:07:37.883Z,100214.28
2022-12-08T10:10:36.338Z,100215.28
2022-12-08T10:13:43.445Z,100215.19
2022-12-08T10:16:36.903Z,100214.03
2022-12-08T10:19:26.870Z,100220.09
2022-12-08T10:22:20.364Z,100216.56
2022-12-08T10:25:11.391Z,100213.53
2022-12-08T10:27:58.618Z,100218.53
2022-12-08T10:30:44.073Z,100204.38
2022-12-08T10:33:32.523Z,100220.63
2022-12-08T10:36:18.201Z,100206.69
2022-12-08T10:39:03.526Z,100219.72
2022-12-08T10:41:51.303Z,100221.44
2022-12-08T10:44:53.931Z,100203.44
2022-12-08T10:47:45.084Z,100213.34
2022-12-08T10:50:41.318Z,100211.16
2022-12-08T10:53:30.086Z,100211.50
2022-12-08T10:56:16.874Z,100198.72
2022-12-08T10:59:18.654Z,100180.91
2022-12-08T11:02:16.298Z,100189.13
2022-12-08T11:05:01.654Z,100187.66
2022-12-08T11:07:51.462Z,100189.50
2022-12-08T11:10:44.039Z,100194.06
2022-12-08T11:13:29.955Z,100177.34
2022-12-08T11:16:17.064Z,100202.25
2022-12-08T11:19:06.703Z,100208.16
2022-12-08T11:21:52.271Z,100202.41
2022-12-08T11:24:38.019Z,100206.44
2022-12-08T11:27:23.414Z,100183.16
2022-12-08T11:30:22.319Z,100205.03
2022-12-08T11:33:23.474Z,100194.25
2022-12-08T11:36:12.566Z,100180.06
2022-12-08T11:39:04.401Z,100177.50
2022-12-08T11:41:53.463Z,100176.63
2022-12-08T11:44:47.951Z,100188.50
2022-12-08T11:48:05.191Z,100186.81
2022-12-08T11:51:17.589Z,100173.88
2022-12-08T11:54:08.822Z,100182.28
2022-12-08T11:57:20.570Z,100175.03
2022-12-08T12:00:10.222Z,100186.31
2022-12-08T12:03:22.380Z,100198.44
2022-12-08T12:06:30.897Z,100197.38
2022-12-08T12:09:45.735Z,100211.59
2022-12-08T12:12:52.637Z,100215.25
2022-12-08T12:15:46.785Z,100214.47
2022-12-08T12:18:41.066Z,100205.81
2022-12-08T12:21:33.828Z,100211.50
2022-12-08T12:24:27.497Z,100209.47
2022-12-08T12:27:16.341Z,100220.31
2022-12-08T12:30:04.591Z,100204.81
2022-12-08T12:33:01.681Z,100192.53
2022-12-08T12:35:48.449Z,100188.22
2022-12-08T12:39:07.613Z,100190.56
2022-12-08T12:41:56.916Z,100188.44
2022-12-08T12:44:43.391Z,100189.22
2022-12-08T12:48:12.141Z,100187.44
2022-12-08T12:50:57.641Z,100182.41
2022-12-08T12:53:42.924Z,100199.38
2022-12-08T12:56:48.519Z,100189.97
2022-12-08T12:59:44.357Z,100209.81
2022-12-08T13:02:38.592Z,100202.38
2022-12-08T13:05:27.315Z,100203.44
2022-12-08T13:08:26.014Z,100192.56
2022-12-08T13:11:11.707Z,100182.22
2022-12-08T13:14:01.194Z,100180.53
2022-12-08T13:16:54.676Z,100191.50
2022-12-08T13:19:41.083Z,100200.34
2022-12-08T13:22:50.413Z,100216.56
2022-12-08T13:25:47.664Z,100193.78
2022-12-08T13:28:33.014Z,100196.97
2022-12-08T13:31:41.651Z,100218.44
2022-12-08T13:34:54.914Z,100208.31
2022-12-08T13:37:54.962Z,100219.81
2022-12-08T13:40:42.355Z,100227.19
2022-12-08T13:44:30.993Z,100216.31
2022-12-08T13:59:45.777Z,100237.66
2022-12-08T14:02:37.890Z,100248.44
2022-12-08T14:06:02.876Z,100245.69
2022-12-08T14:11:44.480Z,100241.47
2022-12-08T14:15:01.253Z,100247.91
2022-12-08T14:17:39.278Z,100259.06
2022-12-08T14:20:57.869Z,100253.47
2022-12-08T14:23:44.061Z,100241.69
2022-12-08T14:26:33.781Z,100259.22
2022-12-08T14:29:44.631Z,100261.81
2022-12-08T14:32:34.653Z,100269.28
2022-12-08T14:35:32.892Z,100272.00
2022-12-08T14:38:20.454Z,100276.53
2022-12-08T14:41:08.621Z,100282.63
2022-12-08T14:44:02.235Z,100277.50
2022-12-08T14:47:10.349Z,100282.41
2022-12-08T14:49:55.789Z,100269.56
2022-12-08T14:52:44.814Z,100280.00
2022-12-08T14:55:37.835Z,100279.06
2022-12-08T14:58:29.350Z,100280.91
2022-12-08T15:01:17.952Z,100286.25
2022-12-08T15:04:12.062Z,100283.41
2022-12-08T15:07:21.421Z,100285.09
2022-12-08T15:10:16.096Z,100289.09
2022-12-08T15:13:20.009Z,100295.22
2022-12-08T15:16:38.575Z,100297.25
2022-12-08T15:19:32.234Z,100293.91
2022-12-08T15:22:21.587Z,100286.47
2022-12-08T15:25:13.669Z,100305.69
2022-12-08T15:27:59.338Z,100299.03
2022-12-08T15:30:45.398Z,100295.25
2022-12-08T15:33:31.011Z,100291.00
2022-12-08T15:36:16.338Z,100295.34
2022-12-08T15:39:01.909Z,100307.03
2022-12-08T15:41:47.453Z,100303.59
2022-12-08T15:44:33.085Z,100307.00
2022-12-08T15:47:23.523Z,100305.63
2022-12-08T15:50:22.709Z,100301.09
2022-12-08T15:53:12.452Z,100302.94
2022-12-08T15:56:26.406Z,100291.00
2022-12-08T15:59:03.687Z,100293.09
2022-12-08T16:01:49.913Z,100309.44
2022-12-08T16:07:41.569Z,100313.94
2022-12-08T16:10:35.382Z,100299.38
2022-12-08T16:13:57.623Z,100296.84
2022-12-08T16:16:44.689Z,100296.47
2022-12-08T16:19:30.410Z,100295.16
2022-12-08T16:22:51.689Z,100315.97
2022-12-08T16:25:24.077Z,100323.97
2022-12-08T16:28:45.235Z,100321.91
2022-12-08T16:31:20.083Z,100322.09
2022-12-08T16:34:08.027Z,100327.88
2022-12-08T16:36:53.546Z,100328.09
2022-12-08T16:39:44.131Z,100315.06
2022-12-08T16:42:43.334Z,100332.38
2022-12-08T16:45:29.981Z,100341.03
2022-12-08T16:48:15.614Z,100328.91
2022-12-08T16:51:00.991Z,100317.66
2022-12-08T16:53:46.640Z,100339.84
2022-12-08T16:56:33.427Z,100337.50
2022-12-08T16:59:18.929Z,100324.19
2022-12-08T17:02:04.678Z,100336.94
2022-12-08T17:04:50.030Z,100330.19
2022-12-08T17:07:36.066Z,100333.72
2022-12-08T17:10:25.833Z,100341.22
2022-12-08T17:13:12.910Z,100324.00
2022-12-08T17:15:58.187Z,100343.13
2022-12-08T17:18:44.081Z,100334.34
2022-12-08T17:21:29.719Z,100344.69
2022-12-08T17:24:20.172Z,100337.59
2022-12-08T17:27:07.233Z,100348.63
2022-12-08T17:29:52.467Z,100335.09
2022-12-08T17:32:38.611Z,100339.31
2022-12-08T17:35:24.300Z,100352.94
2022-12-08T17:38:09.762Z,100351.25
2022-12-08T17:40:58.537Z,100348.59
2022-12-08T17:43:44.199Z,100342.81
2022-12-08T17:46:29.857Z,100345.53
2022-12-08T17:49:20.991Z,100353.97
2022-12-08T17:52:06.859Z,100349.78
2022-12-08T17:54:52.120Z,100362.50
2022-12-08T17:57:37.894Z,100354.06
2022-12-08T18:00:23.660Z,100353.41
2022-12-08T18:03:08.979Z,100357.94
2022-12-08T18:05:54.495Z,100351.00
2022-12-08T18:08:40.346Z,100361.31
2022-12-08T18:11:27.829Z,100363.53
2022-12-08T18:14:14.752Z,100362.91
2022-12-08T18:17:00.296Z,100362.72
2022-12-08T18:19:45.829Z,100362.78
2022-12-08T18:22:31.162Z,100347.56
2022-12-08T18:25:16.769Z,100352.53
2022-12-08T18:28:02.010Z,100336.53
2022-12-08T18:30:47.474Z,100356.75
2022-12-08T18:33:33.011Z,100332.88
2022-12-08T18:36:22.280Z,100363.78
2022-12-08T18:39:10.950Z,100358.44
2022-12-08T18:41:58.746Z,100362.53
2022-12-08T18:44:44.129Z,100349.94
2022-12-08T18:47:31.721Z,100356.69
2022-12-08T18:50:17.829Z,100353.97
2022-12-08T18:53:03.494Z,100356.44
2022-12-08T18:55:50.802Z,100353.94
2022-12-08T18:58:36.478Z,100354.06
2022-12-08T19:01:21.763Z,100343.38
2022-12-08T19:07:16.968Z,100359.13
2022-12-08T19:10:04.008Z,100371.06
2022-12-08T19:12:50.989Z,100364.03
2022-12-08T19:15:36.514Z,100351.25
2022-12-08T19:18:22.408Z,100362.25
2022-12-08T19:21:08.603Z,100364.31
2022-12-08T19:23:55.748Z,100370.19
2022-12-08T19:26:41.634Z,100363.56
2022-12-08T19:29:27.161Z,100368.31
2022-12-08T19:32:12.544Z,100365.25
2022-12-08T19:34:58.228Z,100373.25
2022-12-08T19:37:43.555Z,100371.75
2022-12-08T19:40:55.240Z,100375.22
2022-12-08T19:43:59.049Z,100387.56
2022-12-08T19:46:44.857Z,100380.03
2022-12-08T19:49:30.894Z,100380.94
2022-12-08T19:52:16.631Z,100371.69
2022-12-08T19:55:02.168Z,100384.72
2022-12-08T19:57:47.710Z,100391.59
2022-12-08T20:00:34.439Z,100384.00
2022-12-08T20:03:21.671Z,100393.41
2022-12-08T20:06:07.379Z,100382.38
2022-12-08T20:08:53.940Z,100381.41
2022-12-08T20:11:40.255Z,100393.50
2022-12-08T20:14:25.871Z,100395.16
2022-12-08T20:17:11.286Z,100398.41
2022-12-08T20:19:56.997Z,100396.72
2022-12-08T20:22:42.798Z,100399.22
2022-12-08T20:25:28.168Z,100389.88
2022-12-08T20:28:13.748Z,100382.91
2022-12-08T20:30:59.190Z,100403.28
2022-12-08T20:33:44.857Z,100412.53
2022-12-08T20:36:31.272Z,100408.25
2022-12-08T20:39:18.451Z,100398.13
2022-12-08T20:42:04.683Z,100411.53
2022-12-08T20:44:50.004Z,100398.94
2022-12-08T20:47:36.270Z,100421.22
2022-12-08T20:50:21.589Z,100413.56
2022-12-08T20:53:07.088Z,100423.97
2022-12-08T20:55:52.660Z,100434.44
2022-12-08T20:58:38.149Z,100426.41
2022-12-08T21:01:24.818Z,100425.34
2022-12-08T21:04:12.558Z,100422.88
2022-12-08T21:06:58.485Z,100415.31
2022-12-08T21:09:44.959Z,100419.59
2022-12-08T21:12:30.393Z,100425.78
2022-12-08T21:15:15.841Z,100427.56
2022-12-08T21:18:01.495Z,100419.13
2022-12-08T21:20:50.239Z,100399.72
2022-12-08T21:23:35.973Z,100414.22
2022-12-08T21:26:25.832Z,100414.28
2022-12-08T21:29:12.738Z,100428.81
2022-12-08T21:32:00.167Z,100413.44
2022-12-08T21:34:45.926Z,100414.31
2022-12-08T21:37:31.664Z,100425.22
2022-12-08T21:40:17.330Z,100426.88
2022-12-08T21:43:06.044Z,100427.06
2022-12-08T21:45:51.524Z,100424.50
2022-12-08T21:48:37.001Z,100434.59
2022-12-08T21:51:22.825Z,100443.28
2022-12-08T21:54:16.708Z,100430.25
2022-12-08T21:57:04.177Z,100431.84
2022-12-08T21:59:49.712Z,100437.78
2022-12-08T22:02:35.449Z,100430.97
2022-12-08T22:05:21.305Z,100430.38
2022-12-08T22:08:07.299Z,100440.75
2022-12-08T22:10:52.838Z,100437.09
2022-12-08T22:13:40.883Z,100438.97
2022-12-08T22:16:26.593Z,100429.69
2022-12-08T22:19:12.532Z,100418.03
2022-12-08T22:21:58.230Z,100425.56
2022-12-08T22:24:44.443Z,100435.03
2022-12-08T22:27:30.481Z,100420.38
2022-12-08T22:30:16.448Z,100440.78
2022-12-08T22:33:03.173Z,100447.59
2022-12-08T22:35:59.953Z,100431.53
2022-12-08T22:38:48.613Z,100445.19
2022-12-08T22:41:34.314Z,100446.88
2022-12-08T22:44:19.811Z,100445.94
2022-12-08T22:47:05.564Z,100433.97
2022-12-08T22:49:51.398Z,100453.56
2022-12-08T22:52:37.373Z,100450.25
2022-12-08T22:55:22.993Z,100459.47
2022-12-08T22:58:08.445Z,100443.22
2022-12-08T23:00:54.229Z,100455.94
2022-12-08T23:03:39.858Z,100453.41
2022-12-08T23:06:26.953Z,100432.78
2022-12-08T23:09:12.772Z,100452.44
2022-12-08T23:11:58.272Z,100466.06
2022-12-08T23:14:43.964Z,100453.28
2022-12-08T23:17:29.767Z,100449.84
2022-12-08T23:20:15.669Z,100459.28
2022-12-08T23:23:01.317Z,100456.41
2022-12-08T23:25:46.938Z,100439.31
2022-12-08T23:28:32.603Z,100458.19
2022-12-08T23:31:18.913Z,100458.22
2022-12-08T23:34:04.472Z,100458.00
2022-12-08T23:36:49.969Z,100449.53
2022-12-08T23:39:35.601Z,100441.03
2022-12-08T23:42:20.967Z,100453.94
2022-12-08T23:45:08.543Z,100452.19
2022-12-08T23:47:54.617Z,100456.69
2022-12-08T23:50:40.054Z,100463.59
2022-12-08T23:53:28.284Z,100452.63
2022-12-08T23:56:16.296Z,100463.66
2022-12-08T23:59:01.871Z,100457.03
